sensor_id;sensor_type;location;lat;lon;timestamp;P1;durP1;ratioP1;P2;durP2;ratioP2
51602;SDS011;37954;51.980;5.850;2022-09-09T00:07:15;4.55;;;1.88;;
51602;SDS011;37954;51.980;5.850;2022-09-09T00:11:39;2.08;;;1.90;;
51602;SDS011;37954;51.980;5.850;2022-09-09T00:15:57;2.17;;;1.98;;
51602;SDS011;37954;51.980;5.850;2022-09-09T00:24:29;2.20;;;2.00;;
51602;SDS011;37954;51.980;5.850;2022-09-09T00:33:17;2.05;;;1.95;;
51602;SDS011;37954;51.980;5.850;2022-09-09T00:37:33;2.42;;;2.22;;
51602;SDS011;37954;51.980;5.850;2022-09-09T00:55:15;3.05;;;2.38;;
51602;SDS011;37954;51.980;5.850;2022-09-09T00:59:34;2.80;;;1.90;;
51602;SDS011;37954;51.980;5.850;2022-09-09T01:08:09;2.00;;;1.60;;
51602;SDS011;37954;51.980;5.850;2022-09-09T01:12:43;1.73;;;1.63;;
51602;SDS011;37954;51.980;5.850;2022-09-09T01:17:03;2.08;;;1.85;;
51602;SDS011;37954;51.980;5.850;2022-09-09T01:26:04;1.38;;;1.27;;
51602;SDS011;37954;51.980;5.850;2022-09-09T01:30:41;1.42;;;1.33;;
51602;SDS011;37954;51.980;5.850;2022-09-09T01:34:57;3.00;;;1.33;;
51602;SDS011;37954;51.980;5.850;2022-09-09T01:39:09;1.60;;;1.50;;
51602;SDS011;37954;51.980;5.850;2022-09-09T01:43:23;1.70;;;1.33;;
51602;SDS011;37954;51.980;5.850;2022-09-09T01:47:36;1.45;;;1.35;;
51602;SDS011;37954;51.980;5.850;2022-09-09T01:52:04;1.40;;;1.30;;
51602;SDS011;37954;51.980;5.850;2022-09-09T01:56:22;1.60;;;1.48;;
51602;SDS011;37954;51.980;5.850;2022-09-09T02:01:27;1.50;;;1.30;;
51602;SDS011;37954;51.980;5.850;2022-09-09T02:05:40;1.25;;;1.15;;
51602;SDS011;37954;51.980;5.850;2022-09-09T02:10:14;1.50;;;1.33;;
51602;SDS011;37954;51.980;5.850;2022-09-09T02:14:46;1.45;;;1.35;;
51602;SDS011;37954;51.980;5.850;2022-09-09T02:19:13;1.33;;;1.23;;
51602;SDS011;37954;51.980;5.850;2022-09-09T02:23:51;1.48;;;1.38;;
51602;SDS011;37954;51.980;5.850;2022-09-09T02:28:05;1.48;;;1.38;;
51602;SDS011;37954;51.980;5.850;2022-09-09T02:32:21;1.40;;;1.30;;
51602;SDS011;37954;51.980;5.850;2022-09-09T02:36:36;2.00;;;1.73;;
51602;SDS011;37954;51.980;5.850;2022-09-09T02:40:50;1.90;;;1.70;;
51602;SDS011;37954;51.980;5.850;2022-09-09T02:45:03;1.33;;;1.23;;
51602;SDS011;37954;51.980;5.850;2022-09-09T02:49:18;1.67;;;1.58;;
51602;SDS011;37954;51.980;5.850;2022-09-09T02:53:43;3.63;;;1.83;;
51602;SDS011;37954;51.980;5.850;2022-09-09T02:58:30;1.60;;;1.40;;
51602;SDS011;37954;51.980;5.850;2022-09-09T03:02:47;1.85;;;1.67;;
51602;SDS011;37954;51.980;5.850;2022-09-09T03:06:59;2.22;;;2.03;;
51602;SDS011;37954;51.980;5.850;2022-09-09T03:11:11;2.20;;;2.00;;
51602;SDS011;37954;51.980;5.850;2022-09-09T03:15:23;2.72;;;1.70;;
51602;SDS011;37954;51.980;5.850;2022-09-09T03:19:35;1.90;;;1.80;;
51602;SDS011;37954;51.980;5.850;2022-09-09T03:23:47;1.58;;;1.48;;
51602;SDS011;37954;51.980;5.850;2022-09-09T03:27:59;1.90;;;1.80;;
51602;SDS011;37954;51.980;5.850;2022-09-09T03:32:11;2.10;;;1.88;;
51602;SDS011;37954;51.980;5.850;2022-09-09T03:36:24;1.70;;;1.60;;
51602;SDS011;37954;51.980;5.850;2022-09-09T03:40:37;3.78;;;1.85;;
51602;SDS011;37954;51.980;5.850;2022-09-09T03:44:50;1.75;;;1.65;;
51602;SDS011;37954;51.980;5.850;2022-09-09T03:49:04;1.88;;;1.77;;
51602;SDS011;37954;51.980;5.850;2022-09-09T03:53:17;2.25;;;2.05;;
51602;SDS011;37954;51.980;5.850;2022-09-09T03:57:33;3.88;;;2.00;;
51602;SDS011;37954;51.980;5.850;2022-09-09T04:01:49;4.18;;;2.00;;
51602;SDS011;37954;51.980;5.850;2022-09-09T04:06:02;2.50;;;1.90;;
51602;SDS011;37954;51.980;5.850;2022-09-09T04:10:16;2.72;;;1.90;;
51602;SDS011;37954;51.980;5.850;2022-09-09T04:14:28;2.88;;;2.20;;
51602;SDS011;37954;51.980;5.850;2022-09-09T04:18:41;2.13;;;1.92;;
51602;SDS011;37954;51.980;5.850;2022-09-09T04:22:52;2.40;;;2.17;;
51602;SDS011;37954;51.980;5.850;2022-09-09T04:27:05;2.13;;;1.92;;
51602;SDS011;37954;51.980;5.850;2022-09-09T04:31:20;4.90;;;2.40;;
51602;SDS011;37954;51.980;5.850;2022-09-09T04:35:38;2.47;;;2.10;;
51602;SDS011;37954;51.980;5.850;2022-09-09T04:39:50;2.47;;;2.00;;
51602;SDS011;37954;51.980;5.850;2022-09-09T04:44:02;2.20;;;2.00;;
51602;SDS011;37954;51.980;5.850;2022-09-09T04:48:14;2.30;;;2.10;;
51602;SDS011;37954;51.980;5.850;2022-09-09T04:52:27;2.20;;;2.00;;
51602;SDS011;37954;51.980;5.850;2022-09-09T04:56:40;1.73;;;1.63;;
51602;SDS011;37954;51.980;5.850;2022-09-09T05:00:53;3.17;;;1.98;;
51602;SDS011;37954;51.980;5.850;2022-09-09T05:05:05;8.02;;;1.90;;
51602;SDS011;37954;51.980;5.850;2022-09-09T05:09:17;2.13;;;1.92;;
51602;SDS011;37954;51.980;5.850;2022-09-09T05:13:30;3.25;;;1.88;;
51602;SDS011;37954;51.980;5.850;2022-09-09T05:17:43;3.22;;;1.70;;
51602;SDS011;37954;51.980;5.850;2022-09-09T05:21:55;4.35;;;2.00;;
51602;SDS011;37954;51.980;5.850;2022-09-09T05:26:17;2.58;;;1.75;;
51602;SDS011;37954;51.980;5.850;2022-09-09T05:30:32;1.67;;;1.58;;
51602;SDS011;37954;51.980;5.850;2022-09-09T05:34:47;2.72;;;1.92;;
51602;SDS011;37954;51.980;5.850;2022-09-09T05:39:00;2.38;;;1.90;;
51602;SDS011;37954;51.980;5.850;2022-09-09T05:43:15;2.28;;;1.73;;
51602;SDS011;37954;51.980;5.850;2022-09-09T05:47:27;2.25;;;1.60;;
51602;SDS011;37954;51.980;5.850;2022-09-09T05:51:39;2.15;;;1.58;;
51602;SDS011;37954;51.980;5.850;2022-09-09T05:55:59;2.10;;;1.67;;
51602;SDS011;37954;51.980;5.850;2022-09-09T06:00:13;3.25;;;1.75;;
51602;SDS011;37954;51.980;5.850;2022-09-09T06:04:29;2.65;;;1.92;;
51602;SDS011;37954;51.980;5.850;2022-09-09T06:08:44;5.53;;;1.75;;
51602;SDS011;37954;51.980;5.850;2022-09-09T06:12:59;3.00;;;1.48;;
51602;SDS011;37954;51.980;5.850;2022-09-09T06:17:11;1.65;;;1.50;;
51602;SDS011;37954;51.980;5.850;2022-09-09T06:21:24;1.50;;;1.40;;
51602;SDS011;37954;51.980;5.850;2022-09-09T06:25:36;2.28;;;1.50;;
51602;SDS011;37954;51.980;5.850;2022-09-09T06:29:48;3.65;;;1.33;;
51602;SDS011;37954;51.980;5.850;2022-09-09T06:34:01;4.03;;;1.90;;
51602;SDS011;37954;51.980;5.850;2022-09-09T06:38:15;1.73;;;1.63;;
51602;SDS011;37954;51.980;5.850;2022-09-09T06:42:27;2.42;;;1.60;;
51602;SDS011;37954;51.980;5.850;2022-09-09T06:46:48;3.75;;;1.52;;
51602;SDS011;37954;51.980;5.850;2022-09-09T06:51:05;2.75;;;1.40;;
51602;SDS011;37954;51.980;5.850;2022-09-09T06:55:20;1.80;;;1.50;;
51602;SDS011;37954;51.980;5.850;2022-09-09T06:59:32;1.20;;;1.10;;
51602;SDS011;37954;51.980;5.850;2022-09-09T07:03:48;2.00;;;1.30;;
51602;SDS011;37954;51.980;5.850;2022-09-09T07:08:02;0.93;;;0.93;;
51602;SDS011;37954;51.980;5.850;2022-09-09T07:12:14;2.05;;;1.20;;
51602;SDS011;37954;51.980;5.850;2022-09-09T07:16:33;6.82;;;1.52;;
51602;SDS011;37954;51.980;5.850;2022-09-09T07:20:54;2.67;;;1.60;;
51602;SDS011;37954;51.980;5.850;2022-09-09T07:25:08;5.40;;;1.40;;
51602;SDS011;37954;51.980;5.850;2022-09-09T07:29:20;5.45;;;1.75;;
51602;SDS011;37954;51.980;5.850;2022-09-09T07:33:34;4.00;;;1.65;;
51602;SDS011;37954;51.980;5.850;2022-09-09T07:37:47;3.63;;;1.85;;
51602;SDS011;37954;51.980;5.850;2022-09-09T07:42:02;2.05;;;1.08;;
51602;SDS011;37954;51.980;5.850;2022-09-09T07:46:16;1.83;;;1.38;;
51602;SDS011;37954;51.980;5.850;2022-09-09T07:50:28;2.67;;;1.63;;
51602;SDS011;37954;51.980;5.850;2022-09-09T07:54:40;2.80;;;1.52;;
51602;SDS011;37954;51.980;5.850;2022-09-09T07:58:54;3.25;;;1.67;;
51602;SDS011;37954;51.980;5.850;2022-09-09T08:03:07;1.98;;;1.20;;
51602;SDS011;37954;51.980;5.850;2022-09-09T08:07:19;5.38;;;1.80;;
51602;SDS011;37954;51.980;5.850;2022-09-09T08:11:37;3.00;;;1.40;;
51602;SDS011;37954;51.980;5.850;2022-09-09T08:15:50;1.92;;;1.30;;
51602;SDS011;37954;51.980;5.850;2022-09-09T08:20:03;2.53;;;1.70;;
51602;SDS011;37954;51.980;5.850;2022-09-09T08:24:16;4.57;;;1.45;;
51602;SDS011;37954;51.980;5.850;2022-09-09T08:28:33;5.03;;;1.58;;
51602;SDS011;37954;51.980;5.850;2022-09-09T08:32:45;2.58;;;1.80;;
51602;SDS011;37954;51.980;5.850;2022-09-09T08:36:58;4.63;;;1.75;;
51602;SDS011;37954;51.980;5.850;2022-09-09T08:41:26;2.10;;;1.20;;
51602;SDS011;37954;51.980;5.850;2022-09-09T08:46:00;1.92;;;1.45;;
51602;SDS011;37954;51.980;5.850;2022-09-09T08:54:47;2.78;;;1.35;;
51602;SDS011;37954;51.980;5.850;2022-09-09T08:59:05;2.25;;;1.42;;
51602;SDS011;37954;51.980;5.850;2022-09-09T09:07:50;2.65;;;1.48;;
51602;SDS011;37954;51.980;5.850;2022-09-09T09:12:23;2.15;;;1.17;;
51602;SDS011;37954;51.980;5.850;2022-09-09T09:25:23;3.30;;;1.20;;
51602;SDS011;37954;51.980;5.850;2022-09-09T09:29:46;1.10;;;0.93;;
51602;SDS011;37954;51.980;5.850;2022-09-09T09:34:22;1.00;;;0.90;;
51602;SDS011;37954;51.980;5.850;2022-09-09T09:38:36;0.82;;;0.82;;
51602;SDS011;37954;51.980;5.850;2022-09-09T09:43:18;2.10;;;1.10;;
51602;SDS011;37954;51.980;5.850;2022-09-09T09:47:33;5.85;;;1.45;;
51602;SDS011;37954;51.980;5.850;2022-09-09T09:51:53;2.15;;;1.20;;
51602;SDS011;37954;51.980;5.850;2022-09-09T09:56:13;3.78;;;1.23;;
51602;SDS011;37954;51.980;5.850;2022-09-09T10:00:26;1.55;;;1.35;;
51602;SDS011;37954;51.980;5.850;2022-09-09T10:04:46;2.28;;;1.25;;
51602;SDS011;37954;51.980;5.850;2022-09-09T10:08:59;2.78;;;1.50;;
51602;SDS011;37954;51.980;5.850;2022-09-09T10:17:58;0.80;;;0.80;;
51602;SDS011;37954;51.980;5.850;2022-09-09T10:22:31;1.70;;;0.85;;
51602;SDS011;37954;51.980;5.850;2022-09-09T10:26:51;1.95;;;1.00;;
51602;SDS011;37954;51.980;5.850;2022-09-09T10:35:31;3.83;;;1.20;;
51602;SDS011;37954;51.980;5.850;2022-09-09T10:39:46;2.70;;;1.48;;
51602;SDS011;37954;51.980;5.850;2022-09-09T10:57:13;4.40;;;1.10;;
51602;SDS011;37954;51.980;5.850;2022-09-09T11:01:43;1.58;;;1.08;;
51602;SDS011;37954;51.980;5.850;2022-09-09T11:06:02;2.08;;;1.30;;
51602;SDS011;37954;51.980;5.850;2022-09-09T11:10:29;1.77;;;1.30;;
51602;SDS011;37954;51.980;5.850;2022-09-09T11:14:54;1.98;;;1.27;;
51602;SDS011;37954;51.980;5.850;2022-09-09T11:19:25;1.73;;;1.02;;
51602;SDS011;37954;51.980;5.850;2022-09-09T11:23:47;2.20;;;1.27;;
51602;SDS011;37954;51.980;5.850;2022-09-09T11:28:11;5.65;;;1.40;;
51602;SDS011;37954;51.980;5.850;2022-09-09T11:37:12;4.43;;;1.92;;
51602;SDS011;37954;51.980;5.850;2022-09-09T11:41:35;1.42;;;1.17;;
51602;SDS011;37954;51.980;5.850;2022-09-09T11:45:55;1.20;;;1.10;;
51602;SDS011;37954;51.980;5.850;2022-09-09T12:03:41;3.53;;;1.25;;
51602;SDS011;37954;51.980;5.850;2022-09-09T12:07:58;1.23;;;1.13;;
51602;SDS011;37954;51.980;5.850;2022-09-09T12:16:27;1.52;;;1.13;;
51602;SDS011;37954;51.980;5.850;2022-09-09T12:21:06;1.10;;;1.00;;
51602;SDS011;37954;51.980;5.850;2022-09-09T12:39:09;1.02;;;1.00;;
51602;SDS011;37954;51.980;5.850;2022-09-09T12:43:30;1.25;;;1.15;;
51602;SDS011;37954;51.980;5.850;2022-09-09T12:52:03;1.15;;;1.10;;
51602;SDS011;37954;51.980;5.850;2022-09-09T12:56:29;1.60;;;1.17;;
51602;SDS011;37954;51.980;5.850;2022-09-09T13:00:51;1.55;;;1.10;;
51602;SDS011;37954;51.980;5.850;2022-09-09T13:05:20;1.52;;;1.30;;
51602;SDS011;37954;51.980;5.850;2022-09-09T13:09:36;1.10;;;1.00;;
51602;SDS011;37954;51.980;5.850;2022-09-09T13:13:54;1.85;;;1.20;;
51602;SDS011;37954;51.980;5.850;2022-09-09T13:18:11;1.60;;;1.40;;
51602;SDS011;37954;51.980;5.850;2022-09-09T13:26:59;1.40;;;1.30;;
51602;SDS011;37954;51.980;5.850;2022-09-09T13:31:32;1.05;;;0.90;;
51602;SDS011;37954;51.980;5.850;2022-09-09T13:35:55;1.85;;;1.23;;
51602;SDS011;37954;51.980;5.850;2022-09-09T13:40:13;7.78;;;1.23;;
51602;SDS011;37954;51.980;5.850;2022-09-09T13:44:38;1.13;;;1.00;;
51602;SDS011;37954;51.980;5.850;2022-09-09T13:48:56;1.80;;;1.50;;
51602;SDS011;37954;51.980;5.850;2022-09-09T13:53:09;3.35;;;1.58;;
51602;SDS011;37954;51.980;5.850;2022-09-09T13:57:24;1.27;;;1.17;;
51602;SDS011;37954;51.980;5.850;2022-09-09T14:01:36;3.33;;;1.50;;
51602;SDS011;37954;51.980;5.850;2022-09-09T14:05:48;1.83;;;1.38;;
51602;SDS011;37954;51.980;5.850;2022-09-09T14:10:00;2.03;;;1.25;;
51602;SDS011;37954;51.980;5.850;2022-09-09T14:14:12;1.30;;;0.82;;
51602;SDS011;37954;51.980;5.850;2022-09-09T14:18:24;2.00;;;1.13;;
51602;SDS011;37954;51.980;5.850;2022-09-09T14:22:36;1.80;;;0.90;;
51602;SDS011;37954;51.980;5.850;2022-09-09T14:26:50;1.45;;;1.00;;
51602;SDS011;37954;51.980;5.850;2022-09-09T14:31:02;1.88;;;1.17;;
51602;SDS011;37954;51.980;5.850;2022-09-09T14:35:15;1.15;;;1.00;;
51602;SDS011;37954;51.980;5.850;2022-09-09T14:39:28;1.13;;;0.90;;
51602;SDS011;37954;51.980;5.850;2022-09-09T14:43:41;1.15;;;1.02;;
51602;SDS011;37954;51.980;5.850;2022-09-09T14:47:52;0.90;;;0.88;;
51602;SDS011;37954;51.980;5.850;2022-09-09T14:52:04;3.17;;;1.35;;
51602;SDS011;37954;51.980;5.850;2022-09-09T14:56:17;1.02;;;0.95;;
51602;SDS011;37954;51.980;5.850;2022-09-09T15:00:30;1.20;;;1.10;;
51602;SDS011;37954;51.980;5.850;2022-09-09T15:04:41;1.50;;;1.20;;
51602;SDS011;37954;51.980;5.850;2022-09-09T15:08:53;1.20;;;1.10;;
51602;SDS011;37954;51.980;5.850;2022-09-09T15:13:05;1.25;;;1.15;;
51602;SDS011;37954;51.980;5.850;2022-09-09T15:17:16;2.08;;;1.25;;
51602;SDS011;37954;51.980;5.850;2022-09-09T15:21:29;1.20;;;1.10;;
51602;SDS011;37954;51.980;5.850;2022-09-09T15:25:52;2.05;;;1.35;;
51602;SDS011;37954;51.980;5.850;2022-09-09T15:30:08;2.08;;;1.38;;
51602;SDS011;37954;51.980;5.850;2022-09-09T15:34:21;1.50;;;1.15;;
51602;SDS011;37954;51.980;5.850;2022-09-09T15:38:33;5.65;;;1.30;;
51602;SDS011;37954;51.980;5.850;2022-09-09T15:42:44;1.55;;;1.45;;
51602;SDS011;37954;51.980;5.850;2022-09-09T15:46:56;3.35;;;2.80;;
51602;SDS011;37954;51.980;5.850;2022-09-09T15:51:08;3.05;;;2.00;;
51602;SDS011;37954;51.980;5.850;2022-09-09T15:55:40;7.78;;;2.15;;
51602;SDS011;37954;51.980;5.850;2022-09-09T15:59:52;7.15;;;2.03;;
51602;SDS011;37954;51.980;5.850;2022-09-09T16:04:04;0.63;;;0.63;;
51602;SDS011;37954;51.980;5.850;2022-09-09T16:08:15;2.08;;;1.88;;
51602;SDS011;37954;51.980;5.850;2022-09-09T16:12:27;1.85;;;1.23;;
51602;SDS011;37954;51.980;5.850;2022-09-09T16:16:38;1.08;;;0.95;;
51602;SDS011;37954;51.980;5.850;2022-09-09T16:20:56;1.73;;;1.40;;
51602;SDS011;37954;51.980;5.850;2022-09-09T16:25:08;1.50;;;1.40;;
51602;SDS011;37954;51.980;5.850;2022-09-09T16:29:20;1.40;;;1.30;;
51602;SDS011;37954;51.980;5.850;2022-09-09T16:33:33;1.50;;;1.40;;
51602;SDS011;37954;51.980;5.850;2022-09-09T16:37:45;2.10;;;1.70;;
51602;SDS011;37954;51.980;5.850;2022-09-09T16:41:56;2.58;;;1.40;;
51602;SDS011;37954;51.980;5.850;2022-09-09T16:46:18;2.15;;;1.80;;
51602;SDS011;37954;51.980;5.850;2022-09-09T16:50:30;1.60;;;1.42;;
51602;SDS011;37954;51.980;5.850;2022-09-09T16:54:42;1.40;;;1.30;;
51602;SDS011;37954;51.980;5.850;2022-09-09T16:58:55;1.10;;;1.10;;
51602;SDS011;37954;51.980;5.850;2022-09-09T17:03:12;1.13;;;1.02;;
51602;SDS011;37954;51.980;5.850;2022-09-09T17:07:24;0.90;;;0.90;;
51602;SDS011;37954;51.980;5.850;2022-09-09T17:11:39;1.77;;;1.27;;
51602;SDS011;37954;51.980;5.850;2022-09-09T17:15:51;1.23;;;1.13;;
51602;SDS011;37954;51.980;5.850;2022-09-09T17:20:03;1.05;;;1.00;;
51602;SDS011;37954;51.980;5.850;2022-09-09T17:24:17;1.55;;;1.45;;
51602;SDS011;37954;51.980;5.850;2022-09-09T17:28:28;1.40;;;1.30;;
51602;SDS011;37954;51.980;5.850;2022-09-09T17:32:42;1.50;;;1.40;;
51602;SDS011;37954;51.980;5.850;2022-09-09T17:36:53;1.58;;;1.48;;
51602;SDS011;37954;51.980;5.850;2022-09-09T17:41:10;1.40;;;1.30;;
51602;SDS011;37954;51.980;5.850;2022-09-09T17:45:27;1.20;;;1.17;;
51602;SDS011;37954;51.980;5.850;2022-09-09T17:49:41;1.50;;;1.30;;
51602;SDS011;37954;51.980;5.850;2022-09-09T17:53:53;2.10;;;1.42;;
51602;SDS011;37954;51.980;5.850;2022-09-09T17:58:06;2.03;;;1.60;;
51602;SDS011;37954;51.980;5.850;2022-09-09T18:02:18;1.75;;;1.65;;
51602;SDS011;37954;51.980;5.850;2022-09-09T18:06:37;1.55;;;1.45;;
51602;SDS011;37954;51.980;5.850;2022-09-09T18:10:53;1.58;;;1.48;;
51602;SDS011;37954;51.980;5.850;2022-09-09T18:15:08;1.80;;;1.70;;
51602;SDS011;37954;51.980;5.850;2022-09-09T18:19:21;2.50;;;1.77;;
51602;SDS011;37954;51.980;5.850;2022-09-09T18:23:38;1.83;;;1.67;;
51602;SDS011;37954;51.980;5.850;2022-09-09T18:27:52;1.73;;;1.63;;
51602;SDS011;37954;51.980;5.850;2022-09-09T18:32:05;1.92;;;1.73;;
51602;SDS011;37954;51.980;5.850;2022-09-09T18:36:18;2.08;;;1.88;;
51602;SDS011;37954;51.980;5.850;2022-09-09T18:40:33;1.60;;;1.50;;
51602;SDS011;37954;51.980;5.850;2022-09-09T18:49:21;1.88;;;1.77;;
51602;SDS011;37954;51.980;5.850;2022-09-09T18:53:35;1.83;;;1.70;;
51602;SDS011;37954;51.980;5.850;2022-09-09T18:57:47;2.20;;;2.00;;
51602;SDS011;37954;51.980;5.850;2022-09-09T19:01:58;2.05;;;1.90;;
51602;SDS011;37954;51.980;5.850;2022-09-09T19:06:12;1.80;;;1.70;;
51602;SDS011;37954;51.980;5.850;2022-09-09T19:10:25;5.32;;;2.10;;
51602;SDS011;37954;51.980;5.850;2022-09-09T19:14:37;5.28;;;1.92;;
51602;SDS011;37954;51.980;5.850;2022-09-09T19:18:49;2.53;;;2.13;;
51602;SDS011;37954;51.980;5.850;2022-09-09T19:23:03;4.05;;;2.20;;
51602;SDS011;37954;51.980;5.850;2022-09-09T19:27:15;2.72;;;2.33;;
51602;SDS011;37954;51.980;5.850;2022-09-09T19:31:27;2.30;;;2.10;;
51602;SDS011;37954;51.980;5.850;2022-09-09T19:35:40;2.22;;;2.10;;
51602;SDS011;37954;51.980;5.850;2022-09-09T19:39:52;2.50;;;2.30;;
51602;SDS011;37954;51.980;5.850;2022-09-09T19:44:04;2.53;;;2.33;;
51602;SDS011;37954;51.980;5.850;2022-09-09T19:48:17;2.70;;;2.50;;
51602;SDS011;37954;51.980;5.850;2022-09-09T19:52:31;2.00;;;1.90;;
51602;SDS011;37954;51.980;5.850;2022-09-09T19:56:43;1.92;;;1.83;;
51602;SDS011;37954;51.980;5.850;2022-09-09T20:00:54;7.53;;;2.35;;
51602;SDS011;37954;51.980;5.850;2022-09-09T20:05:06;2.08;;;1.88;;
51602;SDS011;37954;51.980;5.850;2022-09-09T20:09:18;2.72;;;2.42;;
51602;SDS011;37954;51.980;5.850;2022-09-09T20:18:08;2.33;;;1.92;;
51602;SDS011;37954;51.980;5.850;2022-09-09T20:22:19;4.80;;;2.33;;
51602;SDS011;37954;51.980;5.850;2022-09-09T20:26:31;2.42;;;2.22;;
51602;SDS011;37954;51.980;5.850;2022-09-09T20:30:46;2.83;;;1.95;;
51602;SDS011;37954;51.980;5.850;2022-09-09T20:34:58;2.53;;;2.05;;
51602;SDS011;37954;51.980;5.850;2022-09-09T20:39:16;2.55;;;1.88;;
51602;SDS011;37954;51.980;5.850;2022-09-09T20:43:30;3.22;;;2.17;;
51602;SDS011;37954;51.980;5.850;2022-09-09T20:47:43;2.22;;;2.10;;
51602;SDS011;37954;51.980;5.850;2022-09-09T20:51:55;4.00;;;2.33;;
51602;SDS011;37954;51.980;5.850;2022-09-09T20:56:07;2.50;;;2.30;;
51602;SDS011;37954;51.980;5.850;2022-09-09T21:00:19;3.03;;;2.50;;
51602;SDS011;37954;51.980;5.850;2022-09-09T21:04:30;3.05;;;2.42;;
51602;SDS011;37954;51.980;5.850;2022-09-09T21:08:42;3.70;;;2.20;;
51602;SDS011;37954;51.980;5.850;2022-09-09T21:12:54;2.33;;;2.13;;
51602;SDS011;37954;51.980;5.850;2022-09-09T21:17:05;2.47;;;2.28;;
51602;SDS011;37954;51.980;5.850;2022-09-09T21:21:17;2.72;;;2.53;;
51602;SDS011;37954;51.980;5.850;2022-09-09T21:25:31;3.35;;;2.83;;
51602;SDS011;37954;51.980;5.850;2022-09-09T21:29:43;5.47;;;2.97;;
51602;SDS011;37954;51.980;5.850;2022-09-09T21:33:57;3.20;;;2.90;;
51602;SDS011;37954;51.980;5.850;2022-09-09T21:38:16;7.88;;;3.78;;
51602;SDS011;37954;51.980;5.850;2022-09-09T21:42:29;3.85;;;3.15;;
51602;SDS011;37954;51.980;5.850;2022-09-09T21:46:41;3.55;;;3.05;;
51602;SDS011;37954;51.980;5.850;2022-09-09T21:50:54;2.63;;;2.42;;
51602;SDS011;37954;51.980;5.850;2022-09-09T21:55:05;3.03;;;2.83;;
51602;SDS011;37954;51.980;5.850;2022-09-09T21:59:17;3.42;;;3.13;;
51602;SDS011;37954;51.980;5.850;2022-09-09T22:03:29;2.88;;;2.67;;
51602;SDS011;37954;51.980;5.850;2022-09-09T22:07:40;2.55;;;2.35;;
51602;SDS011;37954;51.980;5.850;2022-09-09T22:11:52;4.57;;;3.00;;
51602;SDS011;37954;51.980;5.850;2022-09-09T22:16:07;2.90;;;2.60;;
51602;SDS011;37954;51.980;5.850;2022-09-09T22:20:22;3.47;;;2.40;;
51602;SDS011;37954;51.980;5.850;2022-09-09T22:24:34;2.78;;;2.58;;
51602;SDS011;37954;51.980;5.850;2022-09-09T22:28:45;3.45;;;2.17;;
51602;SDS011;37954;51.980;5.850;2022-09-09T22:32:57;3.22;;;2.30;;
51602;SDS011;37954;51.980;5.850;2022-09-09T22:37:09;2.55;;;2.10;;
51602;SDS011;37954;51.980;5.850;2022-09-09T22:41:21;3.13;;;2.30;;
51602;SDS011;37954;51.980;5.850;2022-09-09T22:45:33;3.58;;;2.92;;
51602;SDS011;37954;51.980;5.850;2022-09-09T22:49:45;2.47;;;2.15;;
51602;SDS011;37954;51.980;5.850;2022-09-09T22:53:57;2.80;;;2.50;;
51602;SDS011;37954;51.980;5.850;2022-09-09T22:58:08;2.60;;;2.30;;
51602;SDS011;37954;51.980;5.850;2022-09-09T23:02:20;3.00;;;1.95;;
51602;SDS011;37954;51.980;5.850;2022-09-09T23:06:32;4.07;;;2.47;;
51602;SDS011;37954;51.980;5.850;2022-09-09T23:10:43;2.25;;;1.95;;
51602;SDS011;37954;51.980;5.850;2022-09-09T23:14:55;2.58;;;2.38;;
51602;SDS011;37954;51.980;5.850;2022-09-09T23:19:08;4.22;;;2.25;;
51602;SDS011;37954;51.980;5.850;2022-09-09T23:23:22;4.05;;;2.30;;
51602;SDS011;37954;51.980;5.850;2022-09-09T23:27:34;5.13;;;2.10;;
51602;SDS011;37954;51.980;5.850;2022-09-09T23:31:48;1.90;;;1.73;;
51602;SDS011;37954;51.980;5.850;2022-09-09T23:36:01;5.82;;;2.33;;
51602;SDS011;37954;51.980;5.850;2022-09-09T23:40:15;3.85;;;2.38;;
51602;SDS011;37954;51.980;5.850;2022-09-09T23:44:26;2.60;;;2.22;;
51602;SDS011;37954;51.980;5.850;2022-09-09T23:48:38;2.65;;;2.30;;
51602;SDS011;37954;51.980;5.850;2022-09-09T23:52:50;3.65;;;2.10;;
51602;SDS011;37954;51.980;5.850;2022-09-09T23:57:02;3.90;;;2.75;;
